Time;durP1;ratioP1;P1;durP2;ratioP2;P2;SDS_P1;SDS_P2;PMS_P1;PMS_P2;Temp;Humidity;BMP_temperature;BMP_pressure;BME280_temperature;BME280_humidity;BME280_pressure;Samples;Min_cycle;Max_cycle;Signal;HPM_P1;HPM_P2
2022/12/07 00:01:29;;;;;;;9.23;3.03;;;;;;;12.32;79.60;100921.41;5050166;28;20033;-75
2022/12/07 00:04:04;;;;;;;19.58;3.55;;;;;;;12.34;79.51;100903.22;5049784;28;20036;-75
2022/12/07 00:06:30;;;;;;;5.80;3.70;;;;;;;12.25;78.73;100904.00;5050092;28;20029;-75
2022/12/07 00:08:56;;;;;;;8.13;2.35;;;;;;;12.31;79.08;100903.50;5049588;28;20056;-75
2022/12/07 00:11:23;;;;;;;19.30;4.75;;;;;;;12.29;78.47;100905.47;5049575;28;20033;-75
2022/12/07 00:13:53;;;;;;;13.50;4.30;;;;;;;12.33;78.09;100917.69;5049342;28;20479;-75
2022/12/07 00:16:20;;;;;;;16.67;3.42;;;;;;;12.27;78.13;100923.59;5050902;28;20082;-75
2022/12/07 00:18:46;;;;;;;10.00;4.38;;;;;;;12.21;78.19;100902.53;5050375;28;20029;-77
2022/12/07 00:21:21;;;;;;;10.73;4.15;;;;;;;12.32;78.39;100916.00;5048720;28;20029;-75
2022/12/07 00:23:48;;;;;;;10.85;4.45;;;;;;;12.36;78.38;100933.63;5064478;28;20033;-75
2022/12/07 00:26:17;;;;;;;11.43;4.65;;;;;;;12.35;77.75;100931.94;5051057;28;20665;-75
2022/12/07 00:28:51;;;;;;;14.65;5.70;;;;;;;12.42;77.98;100933.97;5047960;28;20056;-76
2022/12/07 00:31:18;;;;;;;11.43;6.13;;;;;;;12.26;77.70;100911.13;5051223;28;20029;-77
2022/12/07 00:33:44;;;;;;;11.02;6.20;;;;;;;12.39;77.79;100927.97;5048665;28;20505;-75
2022/12/07 00:36:12;;;;;;;16.58;4.97;;;;;;;12.44;77.23;100928.44;5049826;28;20493;-76
2022/12/07 00:38:39;;;;;;;14.35;5.15;;;;;;;12.50;76.84;100936.03;5049521;28;20033;-75
2022/12/07 00:41:07;;;;;;;11.23;4.85;;;;;;;12.52;76.48;100934.91;5049465;28;20120;-75
2022/12/07 00:43:33;;;;;;;8.45;4.47;;;;;;;12.42;76.56;100930.41;5049981;28;20112;-75
2022/12/07 00:45:59;;;;;;;8.85;4.82;;;;;;;12.51;76.65;100926.94;5049277;28;20856;-74
2022/12/07 00:48:25;;;;;;;7.35;3.92;;;;;;;12.49;76.53;100918.13;5055054;28;20033;-76
2022/12/07 00:50:51;;;;;;;6.20;3.60;;;;;;;12.59;76.16;100929.84;5053677;28;20083;-80
2022/12/07 00:53:16;;;;;;;7.18;4.57;;;;;;;12.49;76.31;100918.13;5051963;28;20024;-78
2022/12/07 00:55:42;;;;;;;7.50;4.20;;;;;;;12.63;75.90;100923.19;5050035;28;20588;-75
2022/12/07 00:58:08;;;;;;;5.63;3.42;;;;;;;12.65;75.83;100923.94;5049248;28;20420;-75
2022/12/07 01:00:36;;;;;;;7.63;3.70;;;;;;;12.70;75.88;100926.22;5049049;28;20032;-75
2022/12/07 01:03:02;;;;;;;7.88;3.60;;;;;;;12.62;75.10;100909.84;5048842;28;20020;-76
2022/12/07 01:05:27;;;;;;;9.95;3.72;;;;;;;12.53;75.20;100908.78;5051090;28;20416;-75
2022/12/07 01:07:53;;;;;;;8.32;4.63;;;;;;;12.60;75.21;100912.66;5053238;28;20039;-76
2022/12/07 01:10:18;;;;;;;10.57;3.95;;;;;;;12.60;75.32;100909.94;5046675;28;20421;-74
2022/12/07 01:12:44;;;;;;;11.23;3.58;;;;;;;12.62;75.53;100902.59;5048897;28;20032;-75
2022/12/07 01:15:09;;;;;;;11.32;4.18;;;;;;;12.61;75.23;100900.88;5050625;28;20024;-75
2022/12/07 01:17:35;;;;;;;8.70;4.15;;;;;;;12.65;74.94;100907.75;5051551;28;20028;-78
2022/12/07 01:20:01;;;;;;;8.38;3.88;;;;;;;12.46;74.89;100862.59;5050213;28;20040;-77
2022/12/07 01:22:27;;;;;;;8.63;3.70;;;;;;;12.40;74.64;100859.56;5047275;28;20028;-74
2022/12/07 01:24:53;;;;;;;9.50;3.25;;;;;;;12.50;75.03;100890.16;5049008;28;20048;-75
2022/12/07 01:27:18;;;;;;;9.55;3.95;;;;;;;12.51;75.18;100889.16;5048534;28;20447;-75
2022/12/07 01:29:44;;;;;;;7.00;3.55;;;;;;;12.44;75.15;100869.09;5049065;28;20116;-78
2022/12/07 01:32:10;;;;;;;4.40;3.03;;;;;;;12.36;74.95;100863.50;5067322;28;20427;-76
2022/12/07 01:34:36;;;;;;;7.57;4.40;;;;;;;12.48;74.82;100878.63;5050378;28;20040;-76
2022/12/07 01:37:01;;;;;;;6.40;3.67;;;;;;;12.46;75.44;100880.59;5049849;28;20488;-75
2022/12/07 01:39:27;;;;;;;6.63;3.58;;;;;;;12.47;74.98;100883.19;5067395;28;20151;-77
2022/12/07 01:41:52;;;;;;;8.75;3.92;;;;;;;12.50;74.92;100868.56;5028488;28;20030;-76
2022/12/07 01:44:30;;;;;;;6.65;3.33;;;;;;;12.34;74.81;100830.41;5027151;28;20095;-74
2022/12/07 01:46:57;;;;;;;11.70;3.83;;;;;;;12.57;74.97;100866.22;5026074;28;20060;-76
2022/12/07 01:49:37;;;;;;;9.68;4.63;;;;;;;12.42;74.99;100868.34;5027044;28;20045;-73
2022/12/07 01:52:17;;;;;;;5.57;3.75;;;;;;;12.42;74.89;100862.97;5027141;28;20064;-74
2022/12/07 01:54:45;;;;;;;11.93;4.03;;;;;;;12.16;75.28;100823.88;5027196;28;20076;-76
2022/12/07 01:57:13;;;;;;;8.02;3.70;;;;;;;12.40;75.16;100862.25;5026371;28;20509;-74
2022/12/07 01:59:38;;;;;;;8.68;3.60;;;;;;;12.35;75.25;100845.63;5026597;28;20034;-74
2022/12/07 02:02:10;;;;;;;8.82;3.88;;;;;;;12.42;75.67;100853.03;5009413;28;20048;-74
2022/12/07 02:04:36;;;;;;;15.00;4.20;;;;;;;12.33;75.22;100850.25;5026173;28;20527;-75
2022/12/07 02:07:04;;;;;;;10.57;4.85;;;;;;;12.44;75.37;100861.00;5025948;28;20052;-75
2022/12/07 02:09:29;;;;;;;6.45;4.25;;;;;;;12.42;75.94;100860.25;5025756;28;20091;-76
2022/12/07 02:11:55;;;;;;;5.97;3.67;;;;;;;12.51;75.08;100857.63;5027881;28;20025;-74
2022/12/07 02:14:21;;;;;;;6.70;4.28;;;;;;;12.43;75.02;100843.09;5048204;28;20098;-74
2022/12/07 02:17:03;;;;;;;5.72;4.10;;;;;;;12.63;74.94;100860.28;5048217;28;20464;-74
2022/12/07 02:19:50;;;;;;;9.35;4.97;;;;;;;12.57;74.85;100864.34;5048198;28;20017;-75
2022/12/07 02:22:28;;;;;;;11.25;4.60;;;;;;;12.50;74.83;100860.50;5050221;28;20158;-76
2022/12/07 02:24:57;;;;;;;10.73;5.88;;;;;;;12.57;74.59;100864.34;5051622;28;20021;-74
2022/12/07 02:28:00;;;;;;;7.68;4.45;;;;;;;12.51;74.62;100862.19;5052115;28;20043;-74
2022/12/07 02:30:31;;;;;;;8.35;5.00;;;;;;;12.45;74.55;100862.69;5051639;28;20028;-75
2022/12/07 02:33:10;;;;;;;10.50;5.63;;;;;;;12.44;74.46;100852.91;5051367;28;20037;-75
2022/12/07 02:35:42;;;;;;;10.05;6.38;;;;;;;12.25;74.25;100828.50;5051525;28;20025;-75
2022/12/07 02:38:31;;;;;;;7.80;5.65;;;;;;;12.35;74.40;100856.41;5051616;28;20043;-74
2022/12/07 02:41:20;;;;;;;9.63;6.75;;;;;;;12.32;74.27;100854.78;5051485;28;20467;-75
2022/12/07 02:43:51;;;;;;;10.55;5.35;;;;;;;12.36;74.39;100869.75;5051309;28;20032;-76
2022/12/07 02:46:22;;;;;;;12.85;6.15;;;;;;;12.31;73.92;100860.34;5049898;28;20035;-75
2022/12/07 02:48:50;;;;;;;8.25;6.07;;;;;;;12.23;74.62;100857.44;5051448;28;20099;-75
2022/12/07 02:51:17;;;;;;;9.95;6.55;;;;;;;12.11;74.46;100853.91;5051712;28;20052;-75
2022/12/07 02:53:43;;;;;;;15.00;7.38;;;;;;;12.14;74.57;100852.81;5051036;28;20025;-75
2022/12/07 02:56:35;;;;;;;9.98;6.88;;;;;;;12.09;74.77;100855.91;5052623;28;20040;-75
2022/12/07 02:59:28;;;;;;;12.65;7.45;;;;;;;12.06;75.08;100858.84;5011795;28;20053;-75
2022/12/07 03:02:17;;;;;;;11.27;7.00;;;;;;;12.07;74.95;100851.63;5010123;28;20057;-74
2022/12/07 03:05:40;;;;;;;14.10;7.75;;;;;;;12.14;74.89;100858.22;5008779;28;20122;-74
2022/12/07 03:08:15;;;;;;;9.63;6.00;;;;;;;11.94;75.05;100852.66;4950264;28;20042;-75
2022/12/07 03:10:55;;;;;;;10.65;6.32;;;;;;;11.70;75.01;100816.97;4950102;28;20476;-75
2022/12/07 03:13:44;;;;;;;11.13;6.97;;;;;;;11.86;75.66;100844.31;4950431;28;20043;-75
2022/12/07 03:16:17;;;;;;;14.13;6.30;;;;;;;11.89;75.26;100838.72;4950122;28;20043;-75
2022/12/07 03:18:49;;;;;;;17.85;7.07;;;;;;;11.87;75.42;100846.06;4950134;28;20082;-74
2022/12/07 03:21:20;;;;;;;17.70;7.07;;;;;;;11.90;75.21;100850.31;4950439;28;20102;-75
2022/12/07 03:23:51;;;;;;;14.02;8.57;;;;;;;11.87;75.20;100840.66;4950328;28;20465;-75
2022/12/07 03:26:19;;;;;;;9.70;7.43;;;;;;;11.91;76.03;100842.13;4949846;28;20507;-74
2022/12/07 03:28:51;;;;;;;11.27;8.02;;;;;;;11.99;75.41;100841.47;4950060;28;20070;-75
2022/12/07 03:31:31;;;;;;;13.45;8.57;;;;;;;11.98;75.14;100839.78;4949618;28;20086;-75
2022/12/07 03:34:19;;;;;;;11.20;7.15;;;;;;;11.92;75.47;100837.59;4949091;28;20130;-74
2022/12/07 03:37:04;;;;;;;14.18;7.85;;;;;;;12.00;75.38;100840.50;4942506;29;20192;-75
2022/12/07 03:39:35;;;;;;;18.10;8.45;;;;;;;12.03;74.94;100842.94;4984033;28;20042;-74
2022/12/07 03:42:04;;;;;;;13.25;8.32;;;;;;;12.07;74.75;100840.84;4988593;28;20049;-75
2022/12/07 03:44:30;;;;;;;11.13;7.85;;;;;;;12.01;74.57;100831.44;4988396;28;20108;-75
2022/12/07 03:47:21;;;;;;;13.57;9.35;;;;;;;12.10;74.23;100840.59;4988298;28;20038;-75
2022/12/07 03:49:53;;;;;;;17.17;8.60;;;;;;;12.10;74.42;100837.88;4988054;28;20037;-79
2022/12/07 03:52:43;;;;;;;12.07;8.30;;;;;;;12.08;74.25;100835.31;4988226;28;20050;-74
2022/12/07 03:55:16;;;;;;;18.35;9.32;;;;;;;11.92;73.66;100819.59;4988210;28;20099;-76
2022/12/07 03:57:44;;;;;;;11.80;7.97;;;;;;;11.94;73.36;100836.47;4988032;28;20070;-76
2022/12/07 04:00:11;;;;;;;12.43;8.95;;;;;;;11.67;73.64;100805.56;4988322;28;20042;-75
2022/12/07 04:02:37;;;;;;;13.50;9.35;;;;;;;11.87;74.04;100840.66;4992638;28;20684;-74
2022/12/07 04:05:03;;;;;;;14.20;9.65;;;;;;;11.85;73.94;100837.25;4975769;28;20046;-75
2022/12/07 04:07:28;;;;;;;14.88;9.85;;;;;;;11.82;73.79;100842.91;4989296;28;20046;-75
2022/12/07 04:09:54;;;;;;;15.23;10.75;;;;;;;11.55;73.91;100796.66;4987963;28;20093;-75
2022/12/07 04:12:21;;;;;;;14.73;11.10;;;;;;;11.74;73.90;100839.97;4988155;28;20154;-75
2022/12/07 04:14:46;;;;;;;14.15;9.30;;;;;;;11.69;73.83;100830.53;5044252;28;20511;-75
2022/12/07 04:17:12;;;;;;;14.27;9.82;;;;;;;11.62;74.04;100830.16;5049515;28;20029;-74
2022/12/07 04:19:37;;;;;;;12.70;9.23;;;;;;;11.60;74.03;100837.53;5049782;28;20454;-74
2022/12/07 04:22:04;;;;;;;14.63;9.98;;;;;;;11.47;73.83;100828.72;5049925;28;20029;-75
2022/12/07 04:24:30;;;;;;;14.10;9.65;;;;;;;11.40;74.34;100822.16;5049359;28;20074;-76
2022/12/07 04:26:55;;;;;;;12.90;9.52;;;;;;;11.34;74.58;100820.78;5049260;28;20040;-74
2022/12/07 04:29:21;;;;;;;19.05;9.10;;;;;;;11.34;74.17;100812.72;5049589;28;20450;-76
2022/12/07 04:31:47;;;;;;;19.60;9.50;;;;;;;11.34;74.71;100814.59;5048996;28;20033;-74
2022/12/07 04:34:13;;;;;;;15.18;9.60;;;;;;;11.21;74.64;100808.47;5049569;28;20176;-74
2022/12/07 04:36:39;;;;;;;14.88;9.90;;;;;;;11.15;74.78;100822.44;5049458;28;20032;-76
2022/12/07 04:39:06;;;;;;;43.22;22.70;;;;;;;11.10;74.99;100821.97;5047990;28;20036;-77
2022/12/07 04:41:32;;;;;;;20.75;14.32;;;;;;;10.96;74.78;100809.59;5049004;28;20029;-74
2022/12/07 04:44:01;;;;;;;14.23;10.48;;;;;;;10.78;75.45;100785.00;5049236;28;20052;-77
2022/12/07 04:46:28;;;;;;;17.80;10.30;;;;;;;11.05;75.62;100830.38;5065876;28;20041;-75
2022/12/07 04:48:54;;;;;;;14.63;10.68;;;;;;;11.07;75.10;100827.59;5049645;28;20033;-75
2022/12/07 04:51:26;;;;;;;16.77;10.15;;;;;;;11.01;75.38;100823.53;5049066;28;20487;-75
2022/12/07 04:53:52;;;;;;;16.35;11.18;;;;;;;10.96;75.25;100820.34;5048920;28;20017;-75
2022/12/07 04:56:18;;;;;;;21.98;12.02;;;;;;;10.98;75.65;100825.63;5049065;28;20037;-75
2022/12/07 04:58:45;;;;;;;22.60;11.07;;;;;;;10.93;75.98;100832.22;5048899;28;20472;-76
2022/12/07 05:01:11;;;;;;;21.23;12.02;;;;;;;10.84;75.53;100824.88;5050826;28;20029;-74
2022/12/07 05:03:37;;;;;;;21.83;13.70;;;;;;;10.87;75.93;100827.34;5052553;28;20032;-77
2022/12/07 05:06:03;;;;;;;20.40;11.98;;;;;;;10.61;75.41;100788.16;5056451;28;20037;-78
2022/12/07 05:08:29;;;;;;;21.00;11.65;;;;;;;10.79;75.72;100835.13;5056373;28;20021;-76
2022/12/07 05:10:54;;;;;;;18.85;11.98;;;;;;;10.71;75.74;100824.13;5050988;28;20040;-74
2022/12/07 05:13:20;;;;;;;22.15;13.40;;;;;;;10.75;75.67;100835.50;5049225;28;20029;-76
2022/12/07 05:15:47;;;;;;;27.48;13.38;;;;;;;10.64;75.77;100830.97;5048827;28;20025;-78
2022/12/07 05:18:12;;;;;;;27.40;15.05;;;;;;;10.58;76.23;100834.13;5049324;28;20112;-76
2022/12/07 05:20:39;;;;;;;21.10;14.90;;;;;;;10.34;76.77;100801.09;5049019;28;20590;-76
2022/12/07 05:23:04;;;;;;;22.35;15.02;;;;;;;10.55;76.94;100842.44;5048764;28;20029;-76
2022/12/07 05:25:29;;;;;;;24.35;15.18;;;;;;;10.33;77.35;100807.47;5048511;28;20024;-75
2022/12/07 05:27:56;;;;;;;25.55;15.77;;;;;;;10.50;77.37;100835.72;5048573;28;20040;-77
2022/12/07 05:30:23;;;;;;;30.98;17.85;;;;;;;10.54;76.99;100847.94;5046791;28;20045;-76
2022/12/07 05:32:48;;;;;;;28.13;18.48;;;;;;;10.24;76.47;100802.78;5047633;28;20029;-76
2022/12/07 05:35:14;;;;;;;31.80;18.20;;;;;;;10.45;77.12;100836.09;5048758;28;20025;-76
2022/12/07 05:37:39;;;;;;;32.47;16.65;;;;;;;10.47;76.71;100834.13;5048325;28;20399;-76
2022/12/07 05:40:05;;;;;;;33.70;19.23;;;;;;;10.45;76.82;100835.22;5048506;28;20407;-76
2022/12/07 05:42:31;;;;;;;38.83;20.25;;;;;;;10.46;76.79;100845.00;5048318;28;20036;-77
2022/12/07 05:44:56;;;;;;;34.60;19.98;;;;;;;10.43;76.90;100835.31;5048588;28;20025;-76
2022/12/07 05:47:21;;;;;;;38.17;21.08;;;;;;;10.30;76.70;100815.75;5048231;28;20033;-76
2022/12/07 05:49:47;;;;;;;37.88;22.08;;;;;;;10.53;77.07;100839.03;5048581;28;20436;-76
2022/12/07 05:52:12;;;;;;;43.63;23.17;;;;;;;10.35;76.54;100809.06;5050233;28;20431;-76
2022/12/07 05:54:38;;;;;;;38.97;23.67;;;;;;;10.50;76.19;100833.88;5049493;28;20075;-76
2022/12/07 05:57:03;;;;;;;45.88;23.90;;;;;;;10.35;76.47;100838.63;5050834;28;20033;-77
2022/12/07 05:59:29;;;;;;;43.53;25.77;;;;;;;10.21;76.83;100827.22;5051956;28;20040;-77
2022/12/07 06:01:57;;;;;;;44.97;25.17;;;;;;;10.34;77.03;100838.72;5052425;28;20061;-75
2022/12/07 06:04:26;;;;;;;46.58;28.05;;;;;;;10.34;76.93;100828.84;5052337;28;20044;-75
2022/12/07 06:06:52;;;;;;;55.85;27.05;;;;;;;10.33;76.97;100831.66;5052416;28;20038;-76
2022/12/07 06:09:19;;;;;;;57.88;30.30;;;;;;;10.33;77.08;100837.03;5060109;28;20029;-76
2022/12/07 06:14:28;;;;;;;62.85;30.05;;;;;;;10.25;77.10;100834.06;5054270;28;20090;-76
2022/12/07 06:16:54;;;;;;;64.80;30.95;;;;;;;10.19;77.48;100834.53;5052226;28;20036;-76
2022/12/07 06:19:20;;;;;;;67.38;31.80;;;;;;;10.16;77.65;100838.31;5051779;28;20035;-76
2022/12/07 06:21:45;;;;;;;68.85;33.80;;;;;;;9.99;77.70;100810.97;5051539;28;20032;-76
2022/12/07 06:24:12;;;;;;;64.28;30.88;;;;;;;10.18;78.38;100844.41;5051885;28;20029;-77
2022/12/07 06:26:38;;;;;;;62.78;31.63;;;;;;;10.23;78.48;100836.00;5051780;28;20037;-76
2022/12/07 06:29:04;;;;;;;62.10;34.42;;;;;;;10.21;78.14;100840.66;5052171;28;20056;-78
2022/12/07 06:31:30;;;;;;;60.42;30.23;;;;;;;10.22;78.18;100850.41;5051686;28;20515;-77
2022/12/07 06:33:59;;;;;;;60.70;28.27;;;;;;;10.26;78.44;100851.91;5051759;28;20107;-77
2022/12/07 06:36:25;;;;;;;49.33;29.33;;;;;;;10.29;78.89;100835.53;5051491;28;20025;-76
2022/12/07 06:38:51;;;;;;;52.38;28.85;;;;;;;10.39;79.32;100839.25;5051410;28;20484;-75
2022/12/07 06:41:16;;;;;;;86.78;42.17;;;;;;;10.40;78.96;100845.50;5051568;28;20341;-77
2022/12/07 06:43:42;;;;;;;46.13;25.75;;;;;;;10.41;78.80;100848.03;5051518;28;20452;-76
2022/12/07 06:46:08;;;;;;;52.72;28.55;;;;;;;10.46;78.38;100843.16;5051432;28;20433;-77
2022/12/07 06:48:33;;;;;;;47.72;25.25;;;;;;;10.48;78.65;100846.59;5051367;28;20060;-77
2022/12/07 06:50:59;;;;;;;47.80;25.67;;;;;;;10.38;78.29;100838.38;5051065;28;20696;-77
2022/12/07 06:53:24;;;;;;;43.72;23.90;;;;;;;10.43;78.57;100838.00;5050980;28;20119;-77
2022/12/07 06:55:50;;;;;;;38.85;23.13;;;;;;;10.29;78.84;100809.53;5051002;28;20572;-77
2022/12/07 06:58:16;;;;;;;43.55;24.20;;;;;;;10.35;79.07;100811.75;5049744;28;20040;-77
2022/12/07 07:00:41;;;;;;;40.60;23.52;;;;;;;10.61;78.92;100841.97;5051016;28;20025;-76
2022/12/07 07:03:06;;;;;;;37.53;23.38;;;;;;;10.72;79.03;100847.38;5050540;28;20029;-76
2022/12/07 07:05:32;;;;;;;41.58;20.50;;;;;;;10.79;79.14;100851.28;5050788;28;20451;-77
2022/12/07 07:07:57;;;;;;;40.72;22.33;;;;;;;10.80;79.04;100836.00;5048051;28;20392;-77
2022/12/07 07:10:23;;;;;;;39.30;22.67;;;;;;;10.97;78.78;100838.22;5050893;28;20032;-77
2022/12/07 07:12:48;;;;;;;41.80;23.73;;;;;;;10.91;78.82;100812.66;5058622;28;20128;-78
2022/12/07 07:15:14;;;;;;;37.22;21.80;;;;;;;11.15;78.93;100847.53;5060371;28;20029;-76
2022/12/07 07:17:39;;;;;;;44.05;20.13;;;;;;;11.29;78.51;100843.69;5054749;28;20049;-77
2022/12/07 07:20:05;;;;;;;36.92;24.65;;;;;;;11.20;78.91;100818.38;5051300;28;20031;-77
2022/12/07 07:22:31;;;;;;;34.58;20.80;;;;;;;11.48;78.18;100843.91;5050595;28;20360;-77
2022/12/07 07:24:56;;;;;;;30.38;20.17;;;;;;;11.59;77.57;100851.97;5050342;28;20031;-76
2022/12/07 07:27:21;;;;;;;29.15;17.10;;;;;;;11.67;76.61;100848.66;5050346;28;20047;-77
2022/12/07 07:29:47;;;;;;;32.38;19.73;;;;;;;11.77;76.48;100855.88;5050449;28;20032;-78
2022/12/07 07:32:12;;;;;;;31.73;19.70;;;;;;;11.85;76.15;100848.03;5050457;28;20040;-77
2022/12/07 07:34:37;;;;;;;33.20;19.63;;;;;;;11.92;75.84;100846.53;5050673;28;20035;-76
2022/12/07 07:37:03;;;;;;;35.33;19.90;;;;;;;11.99;74.93;100845.03;5050040;28;20116;-77
2022/12/07 07:39:28;;;;;;;33.45;18.40;;;;;;;12.08;74.46;100850.66;5050238;28;20039;-77
2022/12/07 07:41:54;;;;;;;39.45;22.45;;;;;;;12.00;73.90;100827.88;5050017;28;20025;-78
2022/12/07 07:44:19;;;;;;;31.25;19.50;;;;;;;12.23;74.26;100850.19;5050239;28;20048;-77
2022/12/07 07:46:45;;;;;;;34.03;18.83;;;;;;;12.33;73.25;100859.22;5049770;28;20876;-76
2022/12/07 07:49:11;;;;;;;39.28;20.05;;;;;;;12.16;73.19;100821.19;5049812;28;20029;-77
2022/12/07 07:51:36;;;;;;;36.83;20.55;;;;;;;12.43;72.74;100851.19;5050030;28;20358;-78
2022/12/07 07:54:03;;;;;;;41.15;19.25;;;;;;;12.48;72.46;100854.34;5049548;28;20045;-76
2022/12/07 07:56:29;;;;;;;27.73;18.27;;;;;;;12.63;71.86;100860.28;5049373;28;20419;-77
2022/12/07 07:58:54;;;;;;;41.35;19.58;;;;;;;12.65;71.38;100853.78;5052218;28;20033;-77
2022/12/07 08:01:20;;;;;;;39.47;20.65;;;;;;;12.73;71.10;100872.84;5054888;28;20032;-77
2022/12/07 08:03:49;;;;;;;34.55;19.70;;;;;;;12.76;70.63;100864.47;5050924;28;20025;-78
2022/12/07 08:06:14;;;;;;;31.98;17.80;;;;;;;12.63;70.24;100823.34;5049910;28;20094;-76
2022/12/07 08:08:40;;;;;;;42.42;18.58;;;;;;;12.94;70.06;100862.88;5049384;28;20032;-76
2022/12/07 08:11:07;;;;;;;40.72;18.45;;;;;;;13.03;69.79;100848.56;5049622;28;20036;-77
2022/12/07 08:13:32;;;;;;;36.47;17.15;;;;;;;12.96;69.54;100831.22;5049759;28;20021;-77
2022/12/07 08:15:58;;;;;;;36.90;17.27;;;;;;;13.02;68.90;100819.88;5051489;28;20032;-77
2022/12/07 08:18:23;;;;;;;43.55;18.13;;;;;;;13.13;68.53;100820.78;5053153;28;20029;-75
2022/12/07 08:20:49;;;;;;;29.40;16.60;;;;;;;13.43;67.90;100850.44;5051339;28;20084;-77
2022/12/07 08:23:14;;;;;;;29.85;17.45;;;;;;;13.46;67.19;100844.78;5049312;28;20048;-77
2022/12/07 08:25:40;;;;;;;33.65;19.67;;;;;;;13.48;66.87;100848.22;5049534;28;20017;-77
2022/12/07 08:28:06;;;;;;;53.78;19.73;;;;;;;13.56;66.97;100845.66;5049869;28;20033;-76
2022/12/07 08:30:32;;;;;;;33.33;15.63;;;;;;;13.62;66.21;100842.41;5049843;28;20514;-77
2022/12/07 08:32:58;;;;;;;33.75;16.40;;;;;;;13.72;65.80;100840.59;5049217;28;20404;-77
2022/12/07 08:35:24;;;;;;;48.80;17.30;;;;;;;13.73;65.69;100833.34;5049072;28;20047;-77
2022/12/07 08:37:49;;;;;;;33.45;16.80;;;;;;;13.73;65.59;100823.34;5049036;28;20104;-78
2022/12/07 08:40:15;;;;;;;33.28;14.63;;;;;;;13.68;65.74;100828.34;5049547;28;20115;-78
2022/12/07 08:42:48;;;;;;;31.58;14.57;;;;;;;13.67;65.96;100842.81;5048893;28;20032;-77
2022/12/07 08:45:14;;;;;;;;;;;;;;;13.82;65.46;100841.44;5049564;28;20036;-76
2022/12/07 08:48:01;;;;;;;31.80;15.48;;;;;;;13.88;64.98;100830.06;5048719;28;19909;-79
2022/12/07 08:50:27;;;;;;;26.70;12.25;;;;;;;13.73;64.78;100831.47;5048816;28;20061;-76
2022/12/07 08:52:56;;;;;;;20.88;10.65;;;;;;;13.78;64.99;100836.47;5048883;28;20199;-77
2022/12/07 08:55:23;;;;;;;23.38;12.00;;;;;;;13.60;64.51;100787.66;5048956;28;20128;-78
2022/12/07 08:57:49;;;;;;;31.58;15.07;;;;;;;13.78;64.82;100796.78;5049234;28;20099;-76
2022/12/07 09:00:16;;;;;;;37.20;20.20;;;;;;;13.92;65.35;100809.84;5049345;28;20043;-76
2022/12/07 09:02:44;;;;;;;21.77;12.52;;;;;;;13.92;65.78;100820.66;5046167;28;20041;-77
2022/12/07 09:05:09;;;;;;;23.85;13.85;;;;;;;13.86;65.44;100805.03;5049213;28;20123;-77
2022/12/07 09:07:35;;;;;;;22.27;13.48;;;;;;;13.71;65.20;100790.22;5049029;28;20103;-77
2022/12/07 09:10:01;;;;;;;23.95;13.25;;;;;;;13.78;65.24;100804.03;5048998;28;20025;-76
2022/12/07 09:12:27;;;;;;;28.17;15.07;;;;;;;13.85;65.87;100824.94;5049013;28;20029;-76
2022/12/07 09:14:52;;;;;;;22.88;12.68;;;;;;;13.82;66.20;100814.41;5048604;28;20128;-77
2022/12/07 09:17:17;;;;;;;27.75;14.63;;;;;;;13.97;65.86;100804.91;5048779;28;20017;-77
2022/12/07 09:19:43;;;;;;;20.73;12.77;;;;;;;14.04;64.96;100807.88;5055266;28;20041;-77
2022/12/07 09:22:09;;;;;;;24.25;13.50;;;;;;;13.97;64.70;100806.75;5058782;28;20033;-77
2022/12/07 09:24:34;;;;;;;41.38;16.63;;;;;;;13.92;64.89;100798.19;5055031;28;20029;-76
2022/12/07 09:27:00;;;;;;;30.15;17.05;;;;;;;14.07;65.87;100794.91;5048786;28;20052;-76
2022/12/07 09:29:25;;;;;;;29.92;14.30;;;;;;;13.98;65.55;100774.13;5048736;28;20051;-77
2022/12/07 09:31:51;;;;;;;30.35;14.40;;;;;;;14.08;64.76;100787.66;5050670;28;20495;-77
2022/12/07 09:34:17;;;;;;;27.45;12.70;;;;;;;13.99;64.96;100794.78;5052642;28;20469;-77
2022/12/07 09:36:43;;;;;;;33.20;14.52;;;;;;;14.01;65.28;100783.81;5052633;28;20028;-77
2022/12/07 09:39:09;;;;;;;23.98;13.73;;;;;;;13.86;65.04;100774.41;5052561;28;20738;-77
2022/12/07 09:41:39;;;;;;;25.58;13.45;;;;;;;13.97;64.33;100775.16;5052729;28;20424;-77
2022/12/07 09:44:09;;;;;;;26.30;14.45;;;;;;;14.22;64.04;100776.38;5051114;28;20060;-76
2022/12/07 09:46:38;;;;;;;27.25;12.90;;;;;;;14.18;64.12;100783.09;5052216;28;20047;-76
2022/12/07 09:49:05;;;;;;;21.40;11.90;;;;;;;14.18;64.17;100777.69;5052876;28;20412;-76
2022/12/07 09:51:31;;;;;;;27.70;14.07;;;;;;;14.18;64.71;100767.72;5052624;28;20057;-76
2022/12/07 09:53:58;;;;;;;25.65;13.60;;;;;;;13.98;64.43;100727.31;5052550;28;20029;-78
2022/12/07 09:56:24;;;;;;;30.70;14.48;;;;;;;14.21;63.85;100772.00;5052069;28;20519;-78
2022/12/07 09:59:13;;;;;;;36.45;13.82;;;;;;;14.24;63.23;100744.66;5050771;28;20021;-76
2022/12/07 10:01:39;;;;;;;22.33;13.65;;;;;;;14.38;62.97;100773.13;5052377;28;20124;-77
2022/12/07 10:04:25;;;;;;;29.23;13.73;;;;;;;14.50;62.51;100761.97;5052016;28;20104;-77
2022/12/07 10:06:51;;;;;;;35.88;15.70;;;;;;;14.50;62.54;100767.41;5051959;28;20043;-78
2022/12/07 10:09:19;;;;;;;27.80;15.32;;;;;;;14.60;62.75;100761.97;5052053;28;20052;-77
2022/12/07 10:12:03;;;;;;;40.08;16.65;;;;;;;14.67;61.96;100763.09;5052257;28;20033;-76
2022/12/07 10:14:31;;;;;;;53.47;27.38;;;;;;;14.48;62.49;100726.09;5052296;28;20025;-77
2022/12/07 10:16:57;;;;;;;36.75;19.23;;;;;;;14.55;62.97;100731.78;5051794;28;20033;-77
2022/12/07 10:19:31;;;;;;;31.40;17.83;;;;;;;14.55;64.16;100745.31;5052197;28;20404;-76
2022/12/07 10:22:10;;;;;;;28.08;13.70;;;;;;;14.53;64.42;100747.28;5052258;28;20111;-75
2022/12/07 10:24:39;;;;;;;28.40;15.52;;;;;;;14.46;65.43;100748.91;5058249;28;20477;-76
2022/12/07 10:27:05;;;;;;;40.60;22.25;;;;;;;14.39;65.23;100715.31;5058258;28;20093;-76
2022/12/07 10:29:38;;;;;;;29.83;15.15;;;;;;;14.52;65.14;100737.50;5052515;28;20543;-77
2022/12/07 10:32:14;;;;;;;29.02;14.48;;;;;;;14.59;65.68;100733.19;5052106;28;20031;-76
2022/12/07 10:34:39;;;;;;;26.10;14.73;;;;;;;14.61;65.58;100732.06;5052237;28;20644;-77
2022/12/07 10:37:16;;;;;;;41.60;16.05;;;;;;;14.60;65.76;100727.63;5051842;28;20070;-77
2022/12/07 10:39:51;;;;;;;28.10;15.10;;;;;;;14.45;65.30;100730.94;5051605;28;20056;-79
2022/12/07 10:42:29;;;;;;;44.28;22.17;;;;;;;14.41;65.70;100729.53;5050883;28;20456;-77
2022/12/07 10:45:15;;;;;;;31.15;16.25;;;;;;;14.46;65.71;100722.66;5051490;28;20056;-76
2022/12/07 10:48:13;;;;;;;41.28;17.52;;;;;;;14.26;65.64;100690.38;5051456;28;20443;-77
2022/12/07 10:50:38;;;;;;;38.42;15.82;;;;;;;14.41;65.70;100724.13;5051326;28;20053;-76
2022/12/07 10:53:28;;;;;;;46.28;15.82;;;;;;;14.45;66.10;100721.00;5051085;28;20040;-77
2022/12/07 10:56:09;;;;;;;39.60;15.95;;;;;;;14.33;66.54;100724.00;5051606;28;20021;-78
2022/12/07 10:58:53;;;;;;;44.10;14.32;;;;;;;14.23;66.07;100710.47;5051502;28;20128;-79
2022/12/07 11:01:49;;;;;;;33.88;16.55;;;;;;;14.30;66.58;100710.75;5050697;28;20108;-76
2022/12/07 11:04:21;;;;;;;41.78;18.00;;;;;;;14.39;66.86;100709.91;5051206;28;20025;-76
2022/12/07 11:07:07;;;;;;;46.58;17.25;;;;;;;14.47;66.45;100701.88;5051099;28;20516;-76
2022/12/07 11:10:10;;;;;;;41.95;15.88;;;;;;;14.62;65.46;100705.81;5049693;28;20546;-77
2022/12/07 11:13:01;;;;;;;38.08;17.08;;;;;;;14.74;65.36;100693.78;5050765;28;20053;-76
2022/12/07 11:16:21;;;;;;;35.65;16.40;;;;;;;14.95;64.24;100688.97;5050528;28;20037;-76
2022/12/07 11:18:59;;;;;;;33.65;16.45;;;;;;;15.10;63.06;100687.47;4988876;28;20038;-76
2022/12/07 11:21:35;;;;;;;39.15;15.98;;;;;;;15.17;61.77;100682.28;4989006;28;20046;-77
2022/12/07 11:24:10;;;;;;;52.58;16.60;;;;;;;15.27;60.95;100689.34;5005185;28;20042;-77
2022/12/07 11:27:05;;;;;;;32.63;17.15;;;;;;;15.28;61.15;100676.66;4991877;28;20030;-76
2022/12/07 11:29:34;;;;;;;34.72;15.73;;;;;;;15.24;62.18;100672.53;4995163;28;20046;-78